createdAt,value
2023-05-14T00:01:15.372Z,100.00
2023-05-14T00:03:44.384Z,100.00
2023-05-14T00:06:13.464Z,100.00
2023-05-14T00:08:42.454Z,100.00
2023-05-14T00:11:11.348Z,100.00
2023-05-14T00:13:40.133Z,100.00
2023-05-14T00:16:09.081Z,100.00
2023-05-14T00:18:38.100Z,100.00
2023-05-14T00:21:07.140Z,100.00
2023-05-14T00:23:36.009Z,100.00
2023-05-14T00:26:05.519Z,100.00
2023-05-14T00:28:34.309Z,100.00
2023-05-14T00:31:03.350Z,100.00
2023-05-14T00:33:33.366Z,100.00
2023-05-14T00:36:02.259Z,100.00
2023-05-14T00:38:31.234Z,100.00
2023-05-14T00:41:00.201Z,100.00
2023-05-14T00:43:29.133Z,100.00
2023-05-14T00:45:57.812Z,100.00
2023-05-14T00:48:26.834Z,100.00
2023-05-14T00:50:55.639Z,100.00
2023-05-14T00:53:25.018Z,100.00
2023-05-14T00:55:53.808Z,100.00
2023-05-14T00:58:23.108Z,100.00
2023-05-14T01:00:52.259Z,100.00
2023-05-14T01:03:21.147Z,100.00
2023-05-14T01:06:19.038Z,100.00
2023-05-14T01:09:03.587Z,100.00
2023-05-14T01:12:06.102Z,100.00
2023-05-14T01:15:06.780Z,100.00
2023-05-14T01:17:58.420Z,100.00
2023-05-14T01:20:27.347Z,100.00
2023-05-14T01:22:56.093Z,100.00
2023-05-14T01:25:25.260Z,100.00
2023-05-14T01:28:02.996Z,100.00
2023-05-14T01:30:54.528Z,100.00
2023-05-14T01:33:26.182Z,100.00
2023-05-14T01:35:56.304Z,100.00
2023-05-14T01:38:26.220Z,100.00
2023-05-14T01:40:56.336Z,100.00
2023-05-14T01:43:25.081Z,100.00
2023-05-14T01:45:55.724Z,100.00
2023-05-14T01:48:24.737Z,100.00
2023-05-14T01:50:53.699Z,100.00
2023-05-14T01:53:22.424Z,100.00
2023-05-14T01:55:51.177Z,100.00
2023-05-14T01:58:20.309Z,100.00
2023-05-14T02:00:49.199Z,100.00
2023-05-14T02:03:18.019Z,100.00
2023-05-14T02:05:46.872Z,100.00
2023-05-14T02:08:16.077Z,100.00
2023-05-14T02:10:44.864Z,100.00
2023-05-14T02:13:13.663Z,100.00
2023-05-14T02:15:42.543Z,100.00
2023-05-14T02:18:11.462Z,100.00
2023-05-14T02:20:40.345Z,100.00
2023-05-14T02:23:09.427Z,100.00
2023-05-14T02:25:38.346Z,100.00
2023-05-14T02:28:07.208Z,100.00
2023-05-14T02:30:36.046Z,100.00
2023-05-14T02:33:04.986Z,100.00
2023-05-14T02:35:33.999Z,100.00
2023-05-14T02:38:03.507Z,100.00
2023-05-14T02:40:32.384Z,100.00
2023-05-14T02:43:00.986Z,100.00
2023-05-14T02:45:29.863Z,100.00
2023-05-14T02:47:58.686Z,100.00
2023-05-14T02:50:27.960Z,100.00
2023-05-14T02:52:56.850Z,100.00
2023-05-14T02:55:26.756Z,100.00
2023-05-14T02:57:55.444Z,100.00
2023-05-14T03:00:24.996Z,100.00
2023-05-14T03:02:54.309Z,100.00
2023-05-14T03:05:23.551Z,100.00
2023-05-14T03:07:53.935Z,100.00
2023-05-14T03:10:22.968Z,100.00
2023-05-14T03:12:52.392Z,100.00
2023-05-14T03:15:21.184Z,100.00
2023-05-14T03:17:50.214Z,100.00
2023-05-14T03:20:19.159Z,100.00
2023-05-14T03:22:48.064Z,100.00
2023-05-14T03:25:17.066Z,100.00
2023-05-14T03:27:46.550Z,100.00
2023-05-14T03:30:15.444Z,100.00
2023-05-14T03:32:45.629Z,100.00
2023-05-14T03:35:14.473Z,100.00
2023-05-14T03:37:43.752Z,100.00
2023-05-14T03:40:13.185Z,100.00
2023-05-14T03:42:41.962Z,100.00
2023-05-14T03:45:12.377Z,100.00
2023-05-14T03:47:42.250Z,100.00
2023-05-14T03:50:11.511Z,100.00
2023-05-14T03:52:41.202Z,100.00
2023-05-14T03:55:10.909Z,100.00
2023-05-14T03:57:40.970Z,100.00
2023-05-14T04:00:11.331Z,100.00
2023-05-14T04:02:45.614Z,100.00
2023-05-14T04:05:14.802Z,100.00
2023-05-14T04:07:45.505Z,100.00
2023-05-14T04:10:14.804Z,100.00
2023-05-14T04:12:43.716Z,100.00
2023-05-14T04:15:13.005Z,100.00
2023-05-14T04:17:41.659Z,100.00
2023-05-14T04:20:10.890Z,100.00
2023-05-14T04:22:39.783Z,100.00
2023-05-14T04:25:09.345Z,100.00
2023-05-14T04:27:38.273Z,100.00
2023-05-14T04:30:08.641Z,100.00
2023-05-14T04:32:38.215Z,100.00
2023-05-14T04:35:09.255Z,100.00
2023-05-14T04:37:38.062Z,100.00
2023-05-14T04:40:10.614Z,100.00
2023-05-14T04:42:39.809Z,100.00
2023-05-14T04:45:09.394Z,100.00
2023-05-14T04:47:38.377Z,100.00
2023-05-14T04:50:09.931Z,100.00
2023-05-14T04:52:39.646Z,100.00
2023-05-14T04:55:09.356Z,100.00
2023-05-14T04:57:38.094Z,100.00
2023-05-14T05:00:09.734Z,100.00
2023-05-14T05:02:38.484Z,100.00
2023-05-14T05:05:08.236Z,100.00
2023-05-14T05:07:37.025Z,100.00
2023-05-14T05:10:07.085Z,100.00
2023-05-14T05:12:35.838Z,100.00
2023-05-14T05:15:06.021Z,100.00
2023-05-14T05:17:34.742Z,100.00
2023-05-14T05:20:05.731Z,100.00
2023-05-14T05:22:34.405Z,100.00
2023-05-14T05:25:06.743Z,100.00
2023-05-14T05:27:35.535Z,100.00
2023-05-14T05:30:05.181Z,100.00
2023-05-14T05:32:34.168Z,100.00
2023-05-14T05:35:03.815Z,100.00
2023-05-14T05:37:32.644Z,100.00
2023-05-14T05:40:01.528Z,100.00
2023-05-14T05:42:30.423Z,100.00
2023-05-14T05:44:59.310Z,100.00
2023-05-14T05:47:28.226Z,100.00
2023-05-14T05:49:57.292Z,100.00
2023-05-14T05:52:26.293Z,100.00
2023-05-14T05:54:55.081Z,100.00
2023-05-14T05:57:26.208Z,100.00
2023-05-14T05:59:55.290Z,100.00
2023-05-14T06:02:25.439Z,100.00
2023-05-14T06:04:54.378Z,100.00
2023-05-14T06:07:23.336Z,100.00
2023-05-14T06:09:52.158Z,100.00
2023-05-14T06:12:22.042Z,100.00
2023-05-14T06:14:51.647Z,100.00
2023-05-14T06:17:20.547Z,100.00
2023-05-14T06:19:49.430Z,100.00
2023-05-14T06:22:18.623Z,100.00
2023-05-14T06:24:48.753Z,98.10
2023-05-14T06:27:17.445Z,96.67
2023-05-14T06:29:46.159Z,96.72
2023-05-14T06:32:15.876Z,90.23
2023-05-14T06:34:44.716Z,91.97
2023-05-14T06:37:13.620Z,86.76
2023-05-14T06:39:48.425Z,89.24
2023-05-14T06:42:17.939Z,89.25
2023-05-14T06:44:46.693Z,88.84
2023-05-14T06:47:15.530Z,87.38
2023-05-14T06:49:44.259Z,81.36
2023-05-14T06:52:13.054Z,79.78
2023-05-14T06:54:41.731Z,85.82
2023-05-14T06:57:10.721Z,83.14
2023-05-14T06:59:39.459Z,80.80
2023-05-14T07:02:08.177Z,81.36
2023-05-14T07:04:37.290Z,81.95
2023-05-14T07:07:06.254Z,79.69
2023-05-14T07:09:35.248Z,79.67
2023-05-14T07:12:04.818Z,78.63
2023-05-14T07:14:33.555Z,75.51
2023-05-14T07:17:02.476Z,73.28
2023-05-14T07:19:31.214Z,64.85
2023-05-14T07:21:59.919Z,65.98
2023-05-14T07:24:28.589Z,63.71
2023-05-14T07:26:57.676Z,61.21
2023-05-14T07:29:26.512Z,62.57
2023-05-14T07:31:55.226Z,63.18
2023-05-14T07:34:23.857Z,62.15
2023-05-14T07:36:53.240Z,62.00
2023-05-14T07:39:21.991Z,61.34
2023-05-14T07:41:51.785Z,60.26
2023-05-14T07:44:20.889Z,56.48
2023-05-14T07:46:49.593Z,56.76
2023-05-14T07:49:18.401Z,53.65
2023-05-14T07:51:47.052Z,55.10
2023-05-14T07:54:15.928Z,55.53
2023-05-14T07:56:44.813Z,55.74
2023-05-14T07:59:13.700Z,55.82
2023-05-14T08:01:42.814Z,56.65
2023-05-14T08:04:16.583Z,55.64
2023-05-14T08:06:45.684Z,55.20
2023-05-14T08:09:14.547Z,53.70
2023-05-14T08:11:43.318Z,52.31
2023-05-14T08:14:12.033Z,53.25
2023-05-14T08:16:40.989Z,52.18
2023-05-14T08:19:09.968Z,51.76
2023-05-14T08:21:38.760Z,49.76
2023-05-14T08:24:08.095Z,52.00
2023-05-14T08:26:37.227Z,51.07
2023-05-14T08:29:06.007Z,49.52
2023-05-14T08:31:34.741Z,47.30
2023-05-14T08:34:03.903Z,46.50
2023-05-14T08:36:33.166Z,46.71
2023-05-14T08:39:01.918Z,46.83
2023-05-14T08:41:30.708Z,46.74
2023-05-14T08:44:15.251Z,46.02
2023-05-14T08:46:44.945Z,45.59
2023-05-14T08:49:43.822Z,46.57
2023-05-14T08:52:13.539Z,45.37
2023-05-14T08:54:42.437Z,44.36
2023-05-14T08:57:11.971Z,44.34
2023-05-14T08:59:41.550Z,43.61
2023-05-14T09:02:13.872Z,43.12
2023-05-14T09:04:43.491Z,43.76
2023-05-14T09:07:12.912Z,42.24
2023-05-14T09:09:41.957Z,41.53
2023-05-14T09:12:10.803Z,40.39
2023-05-14T09:14:39.831Z,40.37
2023-05-14T09:17:08.977Z,39.48
2023-05-14T09:19:39.352Z,39.12
2023-05-14T09:22:17.527Z,38.68
2023-05-14T09:24:47.321Z,38.49
2023-05-14T09:27:20.921Z,38.59
2023-05-14T09:29:49.629Z,38.35
2023-05-14T09:32:18.350Z,37.66
2023-05-14T09:34:47.025Z,36.56
2023-05-14T09:37:15.845Z,36.09
2023-05-14T09:39:44.614Z,34.52
2023-05-14T09:42:13.337Z,32.71
2023-05-14T09:44:42.302Z,32.47
2023-05-14T09:47:11.020Z,32.02
2023-05-14T09:49:40.625Z,32.07
2023-05-14T09:52:09.534Z,32.45
2023-05-14T09:54:39.038Z,32.21
2023-05-14T09:57:07.777Z,31.75
2023-05-14T09:59:36.416Z,32.12
2023-05-14T10:02:06.978Z,31.68
2023-05-14T10:04:37.161Z,31.84
2023-05-14T10:07:06.102Z,31.93
2023-05-14T10:09:38.859Z,31.89
2023-05-14T10:12:08.832Z,31.37
2023-05-14T10:14:43.393Z,31.61
2023-05-14T10:17:18.693Z,32.48
2023-05-14T10:19:53.004Z,31.97
2023-05-14T10:22:26.043Z,32.15
2023-05-14T10:24:56.643Z,29.64
2023-05-14T10:27:26.077Z,29.41
2023-05-14T10:29:56.313Z,30.08
2023-05-14T10:32:26.743Z,30.11
2023-05-14T10:34:55.899Z,29.38
2023-05-14T10:37:28.457Z,28.24
2023-05-14T10:40:06.437Z,27.93
2023-05-14T10:42:43.709Z,28.06
2023-05-14T10:45:15.247Z,27.53
2023-05-14T10:47:47.049Z,28.00
2023-05-14T10:50:16.520Z,28.20
2023-05-14T10:52:46.474Z,28.05
2023-05-14T10:55:17.183Z,28.97
2023-05-14T10:57:47.225Z,29.00
2023-05-14T11:00:16.782Z,28.78
2023-05-14T11:02:47.183Z,28.51
2023-05-14T11:05:20.170Z,28.24
2023-05-14T11:07:50.483Z,27.75
2023-05-14T11:10:22.421Z,26.81
2023-05-14T11:12:52.124Z,26.36
2023-05-14T11:15:26.374Z,27.14
2023-05-14T11:17:55.263Z,26.97
2023-05-14T11:20:24.361Z,26.47
2023-05-14T11:22:53.311Z,25.69
2023-05-14T11:25:22.981Z,26.09
2023-05-14T11:27:52.505Z,26.05
2023-05-14T11:30:22.230Z,25.87
2023-05-14T11:32:51.776Z,25.40
2023-05-14T11:35:20.531Z,25.72
2023-05-14T11:37:52.908Z,25.85
2023-05-14T11:40:22.326Z,26.09
2023-05-14T11:42:53.689Z,24.39
2023-05-14T11:45:30.160Z,24.36
2023-05-14T11:47:58.967Z,25.16
2023-05-14T11:50:27.771Z,25.20
2023-05-14T11:52:59.620Z,25.70
2023-05-14T11:55:28.464Z,25.42
2023-05-14T11:57:57.398Z,25.20
2023-05-14T12:00:27.218Z,24.07
2023-05-14T12:02:56.620Z,23.50
2023-05-14T12:05:26.097Z,24.14
2023-05-14T12:07:56.385Z,24.04
2023-05-14T12:10:25.771Z,24.40
2023-05-14T12:12:54.903Z,23.84
2023-05-14T12:15:23.792Z,23.70
2023-05-14T12:17:52.731Z,24.10
2023-05-14T12:20:23.408Z,22.51
2023-05-14T12:22:52.943Z,24.35
2023-05-14T12:25:21.912Z,25.22
2023-05-14T12:27:50.630Z,25.69
2023-05-14T12:30:21.444Z,25.15
2023-05-14T12:32:53.125Z,25.25
2023-05-14T12:35:23.383Z,26.23
2023-05-14T12:37:52.356Z,27.41
2023-05-14T12:40:21.274Z,28.25
2023-05-14T12:42:50.147Z,27.47
2023-05-14T12:45:19.037Z,26.28
2023-05-14T12:47:47.835Z,24.40
2023-05-14T12:50:16.633Z,23.67
2023-05-14T12:52:46.715Z,23.35
2023-05-14T12:55:15.439Z,22.12
2023-05-14T12:57:45.193Z,22.55
2023-05-14T13:00:15.592Z,22.71
2023-05-14T13:02:44.662Z,23.28
2023-05-14T13:05:13.530Z,23.68
2023-05-14T13:07:42.777Z,23.49
2023-05-14T13:10:11.994Z,23.63
2023-05-14T13:12:41.084Z,23.17
2023-05-14T13:15:10.977Z,23.32
2023-05-14T13:17:41.508Z,21.59
2023-05-14T13:20:10.894Z,22.02
2023-05-14T13:22:39.812Z,22.58
2023-05-14T13:25:09.430Z,23.11
2023-05-14T13:27:38.142Z,23.55
2023-05-14T13:30:07.935Z,22.58
2023-05-14T13:32:36.736Z,22.37
2023-05-14T13:35:07.990Z,19.79
2023-05-14T13:37:37.016Z,20.25
2023-05-14T13:40:09.279Z,21.33
2023-05-14T13:42:39.893Z,22.01
2023-05-14T13:45:09.792Z,22.05
2023-05-14T13:47:40.077Z,22.45
2023-05-14T13:50:09.584Z,22.21
2023-05-14T13:52:39.252Z,21.66
2023-05-14T13:55:08.644Z,21.91
2023-05-14T13:57:37.490Z,21.01
2023-05-14T14:00:07.274Z,22.01
2023-05-14T14:02:36.022Z,22.64
2023-05-14T14:05:05.642Z,21.53
2023-05-14T14:07:34.345Z,20.56
2023-05-14T14:10:03.004Z,20.77
2023-05-14T14:12:31.800Z,22.04
2023-05-14T14:15:01.265Z,22.36
2023-05-14T14:17:30.011Z,22.44
2023-05-14T14:19:58.767Z,22.40
2023-05-14T14:22:29.106Z,21.09
2023-05-14T14:24:58.192Z,21.61
2023-05-14T14:27:26.962Z,22.13
2023-05-14T14:29:56.915Z,22.49
2023-05-14T14:32:25.824Z,22.64
2023-05-14T14:34:54.456Z,22.63
2023-05-14T14:37:24.040Z,23.23
2023-05-14T14:39:53.344Z,22.96
2023-05-14T14:42:22.092Z,23.55
2023-05-14T14:44:50.965Z,23.13
2023-05-14T14:47:19.675Z,22.79
2023-05-14T14:49:48.400Z,23.64
2023-05-14T14:52:17.243Z,23.12
2023-05-14T14:54:45.941Z,23.63
2023-05-14T14:57:14.625Z,24.15
2023-05-14T14:59:43.303Z,24.88
2023-05-14T15:02:12.040Z,25.17
2023-05-14T15:04:40.858Z,25.21
2023-05-14T15:07:09.574Z,25.42
2023-05-14T15:09:38.290Z,25.65
2023-05-14T15:12:09.139Z,26.34
2023-05-14T15:14:37.820Z,26.52
2023-05-14T15:17:06.576Z,26.09
2023-05-14T15:19:35.283Z,25.66
2023-05-14T15:22:04.557Z,24.62
2023-05-14T15:24:33.219Z,23.99
2023-05-14T15:27:01.967Z,22.99
2023-05-14T15:29:30.685Z,22.59
2023-05-14T15:31:59.480Z,23.63
2023-05-14T15:34:28.317Z,23.62
2023-05-14T15:36:57.077Z,24.72
2023-05-14T15:39:25.759Z,24.77
2023-05-14T15:41:54.466Z,24.93
2023-05-14T15:44:23.215Z,24.36
2023-05-14T15:46:52.084Z,23.61
2023-05-14T15:49:20.933Z,24.24
2023-05-14T15:51:49.742Z,23.66
2023-05-14T15:54:18.558Z,22.44
2023-05-14T15:56:47.524Z,22.44
2023-05-14T15:59:17.746Z,23.43
2023-05-14T16:01:46.510Z,23.33
2023-05-14T16:04:15.260Z,23.73
2023-05-14T16:06:45.401Z,23.94
2023-05-14T16:09:14.997Z,24.64
2023-05-14T16:11:43.678Z,25.27
2023-05-14T16:14:12.434Z,26.39
2023-05-14T16:16:41.326Z,27.03
2023-05-14T16:19:10.178Z,27.94
2023-05-14T16:21:38.972Z,28.85
2023-05-14T16:24:08.381Z,28.97
2023-05-14T16:26:37.119Z,29.62
2023-05-14T16:29:05.980Z,29.83
2023-05-14T16:31:34.725Z,29.78
2023-05-14T16:34:03.391Z,30.87
2023-05-14T16:36:32.416Z,31.18
2023-05-14T16:41:32.839Z,31.51
2023-05-14T16:44:01.667Z,31.97
2023-05-14T16:46:31.372Z,32.04
2023-05-14T16:49:00.185Z,32.27
2023-05-14T16:51:28.940Z,32.50
2023-05-14T16:53:57.679Z,32.49
2023-05-14T16:56:26.699Z,32.81
2023-05-14T16:58:55.447Z,33.21
2023-05-14T17:01:24.182Z,33.00
2023-05-14T17:03:52.836Z,33.58
2023-05-14T17:06:21.472Z,33.87
2023-05-14T17:08:50.148Z,34.14
2023-05-14T17:11:18.777Z,34.52
2023-05-14T17:14:01.563Z,34.88
2023-05-14T17:16:29.167Z,35.25
2023-05-14T17:18:56.676Z,35.01
2023-05-14T17:21:25.418Z,35.02
2023-05-14T17:23:54.075Z,35.61
2023-05-14T17:26:23.487Z,36.50
2023-05-14T17:28:52.138Z,36.81
2023-05-14T17:31:21.956Z,37.55
2023-05-14T17:33:50.631Z,37.78
2023-05-14T17:36:19.361Z,37.92
2023-05-14T17:38:48.263Z,37.77
2023-05-14T17:41:16.987Z,38.53
2023-05-14T17:43:45.726Z,39.33
2023-05-14T17:46:14.472Z,39.74
2023-05-14T17:48:43.151Z,39.84
2023-05-14T17:51:11.785Z,40.10
2023-05-14T17:53:40.442Z,40.44
2023-05-14T17:56:09.274Z,40.90
2023-05-14T17:58:38.005Z,41.38
2023-05-14T18:01:06.784Z,41.35
2023-05-14T18:03:35.699Z,42.13
2023-05-14T18:06:04.972Z,42.62
2023-05-14T18:08:33.653Z,43.18
2023-05-14T18:11:02.370Z,44.03
2023-05-14T18:13:31.116Z,44.81
2023-05-14T18:16:00.838Z,45.33
2023-05-14T18:18:29.622Z,46.18
2023-05-14T18:20:58.496Z,46.35
2023-05-14T18:23:27.326Z,47.09
2023-05-14T18:25:56.050Z,47.69
2023-05-14T18:28:24.823Z,48.62
2023-05-14T18:30:53.611Z,50.15
2023-05-14T18:33:22.430Z,52.05
2023-05-14T18:35:51.878Z,53.71
2023-05-14T18:38:20.715Z,54.89
2023-05-14T18:40:49.711Z,55.62
2023-05-14T18:43:19.904Z,56.31
2023-05-14T18:45:48.816Z,56.77
2023-05-14T18:48:17.762Z,57.09
2023-05-14T18:50:46.394Z,57.71
2023-05-14T18:53:15.342Z,58.17
2023-05-14T18:55:44.196Z,58.01
2023-05-14T18:58:13.239Z,58.04
2023-05-14T19:00:41.988Z,58.76
2023-05-14T19:03:10.933Z,58.94
2023-05-14T19:05:39.776Z,59.09
2023-05-14T19:08:08.488Z,59.73
2023-05-14T19:10:37.252Z,60.18
2023-05-14T19:13:06.039Z,60.86
2023-05-14T19:15:34.759Z,60.93
2023-05-14T19:18:03.596Z,61.06
2023-05-14T19:20:32.403Z,61.33
2023-05-14T19:23:01.095Z,61.17
2023-05-14T19:25:30.131Z,60.61
2023-05-14T19:28:01.702Z,59.52
2023-05-14T19:30:30.783Z,58.25
2023-05-14T19:32:59.680Z,57.83
2023-05-14T19:35:28.448Z,57.34
2023-05-14T19:37:57.267Z,56.65
2023-05-14T19:40:26.032Z,54.80
2023-05-14T19:42:54.707Z,51.00
2023-05-14T19:45:23.520Z,49.72
2023-05-14T19:47:52.469Z,51.55
2023-05-14T19:50:21.229Z,52.61
2023-05-14T19:52:49.948Z,52.78
2023-05-14T19:55:18.669Z,53.27
2023-05-14T19:57:47.424Z,54.60
2023-05-14T20:00:16.459Z,55.17
2023-05-14T20:02:45.145Z,56.51
2023-05-14T20:05:14.197Z,57.10
2023-05-14T20:07:43.945Z,59.31
2023-05-14T20:10:12.983Z,60.62
2023-05-14T20:12:41.727Z,62.06
2023-05-14T20:15:11.009Z,63.08
2023-05-14T20:17:39.911Z,64.73
2023-05-14T20:20:10.087Z,65.25
2023-05-14T20:22:40.090Z,65.32
2023-05-14T20:25:10.231Z,67.03
2023-05-14T20:27:39.102Z,67.86
2023-05-14T20:30:08.835Z,68.71
2023-05-14T20:32:37.724Z,69.19
2023-05-14T20:35:07.174Z,70.23
2023-05-14T20:37:36.022Z,70.15
2023-05-14T20:40:06.368Z,70.43
2023-05-14T20:42:36.540Z,71.09
2023-05-14T20:45:06.827Z,71.44
2023-05-14T20:47:35.800Z,71.39
2023-05-14T20:50:04.895Z,71.28
2023-05-14T20:52:33.579Z,70.78
2023-05-14T20:55:02.507Z,70.16
2023-05-14T20:57:31.341Z,69.68
2023-05-14T20:59:59.989Z,70.09
2023-05-14T21:02:28.732Z,69.90
2023-05-14T21:04:57.502Z,69.48
2023-05-14T21:07:27.607Z,69.72
2023-05-14T21:09:57.591Z,69.74
2023-05-14T21:12:26.268Z,70.22
2023-05-14T21:14:54.997Z,70.11
2023-05-14T21:17:23.743Z,69.89
2023-05-14T21:19:52.424Z,70.30
2023-05-14T21:22:22.813Z,70.71
2023-05-14T21:24:51.540Z,71.38
2023-05-14T21:27:20.220Z,71.88
2023-05-14T21:29:48.946Z,71.15
2023-05-14T21:32:18.112Z,70.97
2023-05-14T21:34:46.803Z,70.17
2023-05-14T21:37:15.856Z,69.44
2023-05-14T21:39:44.558Z,68.73
2023-05-14T21:42:13.295Z,68.08
2023-05-14T21:44:41.932Z,67.49
2023-05-14T21:47:11.590Z,66.59
2023-05-14T21:49:40.280Z,66.46
2023-05-14T21:52:09.068Z,65.67
2023-05-14T21:54:37.698Z,65.18
2023-05-14T21:57:06.654Z,65.43
2023-05-14T21:59:35.644Z,65.36
2023-05-14T22:02:07.348Z,66.01
2023-05-14T22:04:36.794Z,66.64
2023-05-14T22:07:05.677Z,66.51
2023-05-14T22:09:34.346Z,66.92
2023-05-14T22:12:03.057Z,67.26
2023-05-14T22:14:31.792Z,67.14
2023-05-14T22:17:00.477Z,67.31
2023-05-14T22:19:29.212Z,66.68
2023-05-14T22:21:57.867Z,67.12
2023-05-14T22:24:26.587Z,67.25
2023-05-14T22:26:55.295Z,66.08
2023-05-14T22:29:23.990Z,64.99
2023-05-14T22:31:52.886Z,64.53
2023-05-14T22:34:21.683Z,63.80
2023-05-14T22:36:50.356Z,62.70
2023-05-14T22:39:19.064Z,62.00
2023-05-14T22:41:47.748Z,61.70
2023-05-14T22:44:16.430Z,61.19
2023-05-14T22:46:45.140Z,59.86
2023-05-14T22:49:14.106Z,59.32
2023-05-14T22:51:42.998Z,59.35
2023-05-14T22:54:11.691Z,59.22
2023-05-14T22:56:40.384Z,59.24
2023-05-14T22:59:09.160Z,59.21
2023-05-14T23:01:38.453Z,59.26
2023-05-14T23:04:07.266Z,59.51
2023-05-14T23:06:35.973Z,59.56
2023-05-14T23:09:04.681Z,59.47
2023-05-14T23:11:33.370Z,59.54
2023-05-14T23:14:02.074Z,59.40
2023-05-14T23:16:30.807Z,59.67
2023-05-14T23:18:59.624Z,59.66
2023-05-14T23:21:28.332Z,60.05
2023-05-14T23:23:56.993Z,60.21
2023-05-14T23:26:25.718Z,60.56
2023-05-14T23:28:54.428Z,60.77
2023-05-14T23:31:23.097Z,60.68
2023-05-14T23:33:51.784Z,60.84
2023-05-14T23:36:20.671Z,61.76
2023-05-14T23:38:49.499Z,62.19
2023-05-14T23:41:18.265Z,62.35
2023-05-14T23:43:47.057Z,62.28
2023-05-14T23:46:16.416Z,62.42
2023-05-14T23:48:45.099Z,62.70
2023-05-14T23:51:13.736Z,63.17
2023-05-14T23:53:42.382Z,63.17
2023-05-14T23:56:12.116Z,62.64
2023-05-14T23:58:40.866Z,61.97
